Time;durP1;ratioP1;P1;durP2;ratioP2;P2;SDS_P1;SDS_P2;PMS_P1;PMS_P2;Temp;Humidity;BMP_temperature;BMP_pressure;BME280_temperature;BME280_humidity;BME280_pressure;Samples;Min_cycle;Max_cycle;Signal;HPM_P1;HPM_P2
2021/12/28 00:01:38;;;;;;;136.90;55.00;;;;;;;-6.54;72.85;99671.41;2049606;86;27724;-60
2021/12/28 00:04:39;;;;;;;130.18;51.55;;;;;;;-6.52;72.94;99667.06;2023523;86;28848;-61
2021/12/28 00:07:42;;;;;;;135.65;53.23;;;;;;;-6.55;72.93;99669.66;2041098;87;31072;-60
2021/12/28 00:10:44;;;;;;;145.12;55.03;;;;;;;-6.56;72.96;99671.38;2041128;87;33870;-61
2021/12/28 00:13:46;;;;;;;142.07;55.25;;;;;;;-6.57;72.94;99668.33;2040596;87;31525;-62
2021/12/28 00:20:13;;;;;;;138.95;55.85;;;;;;;-6.57;72.93;99667.02;2040767;87;28694;-60
2021/12/28 00:23:18;;;;;;;135.88;53.20;;;;;;;-6.57;72.91;99652.69;2043643;87;31842;-61
2021/12/28 00:26:22;;;;;;;133.85;56.68;;;;;;;-6.61;72.95;99663.94;2045128;85;32963;-60
2021/12/28 00:29:25;;;;;;;134.90;54.98;;;;;;;-6.68;72.88;99667.36;2041062;87;31679;-66
2021/12/28 00:32:27;;;;;;;130.25;54.15;;;;;;;-6.68;72.95;99656.05;2040234;87;27761;-59
2021/12/28 00:35:36;;;;;;;137.20;52.20;;;;;;;-6.70;73.04;99649.53;2040634;87;29568;-60
2021/12/28 00:38:38;;;;;;;124.53;53.50;;;;;;;-6.73;73.08;99649.50;2040935;87;31076;-60
2021/12/28 00:41:40;;;;;;;130.93;53.20;;;;;;;-6.76;73.10;99638.62;2040908;87;33347;-63
2021/12/28 00:44:42;;;;;;;133.00;51.75;;;;;;;-6.80;73.14;99634.23;2040311;87;29484;-66
2021/12/28 00:47:44;;;;;;;135.55;55.33;;;;;;;-6.82;73.19;99638.56;2044417;85;27755;-59
2021/12/28 00:50:48;;;;;;;134.10;52.65;;;;;;;-6.84;73.28;99635.50;2046188;87;29532;-67
2021/12/28 00:53:50;;;;;;;136.80;53.05;;;;;;;-6.88;73.28;99638.52;2047170;87;31083;-69
2021/12/28 00:56:52;;;;;;;132.97;54.08;;;;;;;-6.92;73.45;99636.28;2046595;87;34210;-66
2021/12/28 00:59:54;;;;;;;125.35;51.98;;;;;;;-6.93;73.48;99633.68;2047194;87;29869;-63
2021/12/28 01:02:58;;;;;;;145.38;56.42;;;;;;;-6.94;73.49;99624.98;2047424;87;27713;-67
2021/12/28 01:06:01;;;;;;;128.10;55.00;;;;;;;-6.94;73.44;99628.88;2042847;87;28639;-70
2021/12/28 01:09:03;;;;;;;133.78;53.13;;;;;;;-6.94;73.47;99625.42;2040223;87;31105;-60
2021/12/28 01:12:08;;;;;;;128.53;51.30;;;;;;;-6.96;73.55;99624.12;2040346;87;33338;-62
2021/12/28 01:15:11;;;;;;;130.30;52.95;;;;;;;-6.99;73.56;99621.48;2025184;87;30169;-63
2021/12/28 01:18:13;;;;;;;138.52;53.15;;;;;;;-7.00;73.58;99625.34;2006060;88;27856;-64
2021/12/28 01:21:16;;;;;;;135.28;53.87;;;;;;;-7.02;73.66;99630.11;2005838;88;29067;-67
2021/12/28 01:24:18;;;;;;;142.20;54.58;;;;;;;-7.04;73.67;99635.75;2006381;88;31067;-62
2021/12/28 01:27:20;;;;;;;147.72;55.70;;;;;;;-7.03;73.71;99634.86;2009662;87;34227;-61
2021/12/28 01:30:24;;;;;;;132.90;54.18;;;;;;;-7.03;73.68;99631.41;2011099;87;30555;-61
2021/12/28 01:33:26;;;;;;;133.15;56.08;;;;;;;-7.02;73.74;99625.34;2006367;88;27828;-62
2021/12/28 01:36:28;;;;;;;150.70;57.25;;;;;;;-7.03;73.86;99633.56;2005518;88;28773;-61
2021/12/28 01:39:30;;;;;;;145.62;58.85;;;;;;;-7.04;73.92;99632.26;2006738;88;31608;-61
2021/12/28 01:42:32;;;;;;;153.90;59.10;;;;;;;-7.04;73.85;99635.75;2006375;88;34256;-61
2021/12/28 01:45:51;;;;;;;133.55;55.98;;;;;;;-7.04;73.85;99637.47;2006397;88;30516;-60
2021/12/28 01:48:53;;;;;;;148.70;59.10;;;;;;;-7.04;73.92;99643.97;2006113;88;27747;-61
2021/12/28 01:51:55;;;;;;;151.70;58.40;;;;;;;-7.03;73.98;99633.56;2006146;88;29945;-60
2021/12/28 01:54:57;;;;;;;156.52;60.23;;;;;;;-7.02;73.96;99631.84;2006447;88;30845;-61
2021/12/28 01:57:59;;;;;;;150.53;61.10;;;;;;;-7.02;74.02;99632.70;2006291;88;32816;-63
2021/12/28 02:01:01;;;;;;;142.77;61.33;;;;;;;-7.02;74.04;99630.11;2006009;88;29502;-62
2021/12/28 02:04:18;;;;;;;150.85;60.17;;;;;;;-7.01;74.07;99621.88;2006298;87;27759;-62
2021/12/28 02:07:20;;;;;;;146.75;58.95;;;;;;;-7.01;74.03;99619.28;2032952;85;30042;-62
2021/12/28 02:10:22;;;;;;;146.30;58.95;;;;;;;-6.99;74.05;99615.38;2040538;87;31111;-61
2021/12/28 02:13:26;;;;;;;141.35;58.40;;;;;;;-6.97;74.10;99605.86;2040362;87;32762;-64
2021/12/28 02:16:28;;;;;;;149.38;59.88;;;;;;;-6.95;74.11;99598.94;2045461;85;29424;-67
2021/12/28 02:19:30;;;;;;;141.28;56.98;;;;;;;-6.94;74.16;99593.73;2046112;87;28348;-64
2021/12/28 02:22:32;;;;;;;157.80;62.43;;;;;;;-6.89;74.21;99596.41;2046977;87;29477;-63
2021/12/28 02:25:35;;;;;;;154.85;60.05;;;;;;;-6.85;74.17;99590.80;2047242;87;31740;-61
2021/12/28 02:28:37;;;;;;;157.10;60.90;;;;;;;-6.83;74.18;99591.23;2046651;87;33852;-61
2021/12/28 02:31:39;;;;;;;158.32;62.13;;;;;;;-6.80;74.10;99588.67;2047096;87;29743;-61
2021/12/28 02:34:41;;;;;;;156.00;59.70;;;;;;;-6.78;74.06;99585.66;2046805;87;27688;-60
2021/12/28 02:37:44;;;;;;;146.30;60.80;;;;;;;-6.76;74.00;99583.94;2045518;87;29488;-60
2021/12/28 02:40:47;;;;;;;155.57;61.68;;;;;;;-6.76;74.05;99584.34;2046827;87;31875;-68
2021/12/28 02:43:49;;;;;;;156.10;61.18;;;;;;;-6.78;73.93;99583.05;2046900;87;33029;-69
2021/12/28 02:46:52;;;;;;;141.47;56.45;;;;;;;-6.77;73.98;99578.70;2070248;81;30193;-60
2021/12/28 02:49:55;;;;;;;144.05;59.13;;;;;;;-6.78;74.08;99583.05;2155606;82;27574;-63
2021/12/28 02:52:58;;;;;;;157.22;61.37;;;;;;;-6.80;73.96;99576.09;2155917;82;28666;-60
2021/12/28 02:56:01;;;;;;;153.20;58.40;;;;;;;-6.81;74.02;99573.04;2155756;81;32182;-60
2021/12/28 02:59:02;;;;;;;160.82;62.73;;;;;;;-6.82;74.00;99567.39;2155802;81;33749;-62
2021/12/28 03:02:04;;;;;;;157.57;61.58;;;;;;;-6.85;74.01;99563.00;2142012;83;29709;-62
2021/12/28 03:05:07;;;;;;;148.17;58.35;;;;;;;-6.85;73.99;99566.05;2123044;83;27700;-62
2021/12/28 03:08:09;;;;;;;149.55;62.85;;;;;;;-6.86;74.12;99562.56;2123668;82;29660;-61
2021/12/28 03:11:12;;;;;;;144.45;59.45;;;;;;;-6.87;74.05;99566.91;2123124;82;32270;-62
2021/12/28 03:14:14;;;;;;;143.43;57.67;;;;;;;-6.87;74.10;99560.84;2141683;83;34123;-61
2021/12/28 03:17:16;;;;;;;152.62;62.23;;;;;;;-6.89;74.05;99565.16;2123743;83;30617;-60
2021/12/28 03:20:19;;;;;;;146.45;61.53;;;;;;;-6.91;74.11;99578.59;2123689;83;28296;-60
2021/12/28 03:23:23;;;;;;;154.97;63.08;;;;;;;-6.92;74.11;99564.69;2123928;83;28718;-67
2021/12/28 03:26:25;;;;;;;152.93;61.37;;;;;;;-6.92;74.12;99565.13;2155779;82;31008;-63
2021/12/28 03:29:27;;;;;;;141.62;58.90;;;;;;;-6.94;74.18;99553.38;2142420;82;33802;-60
2021/12/28 03:32:29;;;;;;;146.50;58.90;;;;;;;-6.95;74.16;99544.27;2123424;83;30725;-60
2021/12/28 03:35:31;;;;;;;153.12;62.33;;;;;;;-6.99;74.12;99550.30;2123683;83;27635;-60
2021/12/28 03:38:35;;;;;;;148.85;61.40;;;;;;;-7.00;74.25;99545.53;2123787;83;30036;-65
2021/12/28 03:41:37;;;;;;;150.90;58.33;;;;;;;-7.03;74.31;99539.84;2123948;83;30953;-61
2021/12/28 03:44:39;;;;;;;157.80;60.85;;;;;;;-7.03;74.35;99537.69;2123745;83;33167;-66
2021/12/28 03:47:41;;;;;;;153.18;60.65;;;;;;;-7.04;74.35;99534.64;2155182;81;30505;-62
2021/12/28 03:50:43;;;;;;;156.47;59.50;;;;;;;-7.05;74.38;99533.78;2154991;82;27674;-65
2021/12/28 03:53:48;;;;;;;140.90;58.52;;;;;;;-7.05;74.36;99533.78;2155285;82;29045;-66
2021/12/28 03:56:50;;;;;;;144.02;58.60;;;;;;;-7.04;74.49;99539.84;2155304;82;31837;-68
2021/12/28 03:59:52;;;;;;;149.65;62.93;;;;;;;-7.05;74.51;99532.89;2154510;82;34215;-68
2021/12/28 04:02:53;;;;;;;145.92;60.45;;;;;;;-7.05;74.56;99527.69;2154845;82;30069;-65
2021/12/28 04:05:56;;;;;;;157.12;62.30;;;;;;;-7.07;74.64;99523.78;2155006;82;27721;-65
2021/12/28 04:08:59;;;;;;;157.35;60.78;;;;;;;-7.07;74.60;99526.38;2155084;82;29418;-61
2021/12/28 04:12:01;;;;;;;149.10;58.78;;;;;;;-7.08;74.60;99519.84;2154663;82;31024;-60
2021/12/28 04:15:06;;;;;;;151.45;59.50;;;;;;;-7.06;74.67;99514.22;2154450;82;34099;-61
2021/12/28 04:18:08;;;;;;;161.03;61.08;;;;;;;-7.06;74.69;99509.91;2154671;82;29323;-60
2021/12/28 04:21:11;;;;;;;159.18;57.80;;;;;;;-7.05;74.74;99506.45;2154507;82;27667;-65
2021/12/28 04:24:13;;;;;;;146.90;55.08;;;;;;;-7.04;74.74;99509.91;2154560;82;28652;-64
2021/12/28 04:27:15;;;;;;;150.00;57.80;;;;;;;-7.04;74.87;99506.00;2154924;82;31461;-61
2021/12/28 04:30:17;;;;;;;144.05;58.13;;;;;;;-7.03;74.79;99498.64;2154411;82;33036;-67
2021/12/28 04:33:19;;;;;;;147.05;59.67;;;;;;;-7.04;74.80;99502.98;2155015;82;29241;-61
2021/12/28 04:36:21;;;;;;;145.38;58.68;;;;;;;-7.03;74.75;99508.61;2154869;82;27717;-60
2021/12/28 04:39:23;;;;;;;153.85;61.60;;;;;;;-7.02;74.76;99508.19;2154672;82;29870;-64
2021/12/28 04:42:27;;;;;;;156.87;62.85;;;;;;;-7.03;74.77;99509.05;2154564;82;32404;-62
2021/12/28 04:45:29;;;;;;;151.20;62.27;;;;;;;-7.02;74.79;99502.55;2154698;82;34156;-61
2021/12/28 04:48:32;;;;;;;150.57;60.35;;;;;;;-6.99;74.83;99504.73;2149814;81;29330;-61
2021/12/28 04:51:34;;;;;;;153.07;60.70;;;;;;;-7.00;74.87;99489.97;2130529;83;27624;-62
2021/12/28 04:54:37;;;;;;;155.87;61.63;;;;;;;-7.01;74.92;99490.42;2090614;84;30038;-60
2021/12/28 04:57:40;;;;;;;149.60;59.60;;;;;;;-6.99;74.94;99493.02;2147592;82;31829;-61
2021/12/28 05:00:44;;;;;;;150.38;61.13;;;;;;;-6.99;74.92;99487.41;2166033;82;32936;-60
2021/12/28 05:03:46;;;;;;;136.10;58.08;;;;;;;-6.97;74.92;99482.20;2148174;82;29319;-60
2021/12/28 05:06:48;;;;;;;151.87;60.63;;;;;;;-6.97;74.98;99483.50;2167404;82;27617;-60
2021/12/28 05:09:50;;;;;;;159.65;62.58;;;;;;;-6.96;74.95;99487.84;2148168;82;29048;-60
2021/12/28 05:12:52;;;;;;;158.15;65.10;;;;;;;-6.96;74.97;99481.34;2167187;82;30941;-60
2021/12/28 05:15:54;;;;;;;163.47;66.42;;;;;;;-6.96;75.03;99483.53;2147623;82;33668;-61
2021/12/28 05:18:57;;;;;;;162.25;64.75;;;;;;;-6.97;74.99;99477.88;2148261;82;29852;-60
2021/12/28 05:21:58;;;;;;;153.20;62.00;;;;;;;-6.95;75.09;99484.38;2167181;82;28293;-60
2021/12/28 05:25:04;;;;;;;159.50;65.22;;;;;;;-6.95;75.15;99484.38;2147750;82;30059;-62
2021/12/28 05:28:07;;;;;;;166.50;63.68;;;;;;;-6.94;75.29;99479.62;2167539;82;32018;-60
2021/12/28 05:31:09;;;;;;;159.48;67.80;;;;;;;-6.93;75.23;99477.02;2147473;82;33811;-60
2021/12/28 05:34:10;;;;;;;173.72;66.40;;;;;;;-6.89;75.19;99475.33;2165299;82;29741;-61
2021/12/28 05:37:12;;;;;;;164.57;67.62;;;;;;;-6.89;75.30;99469.68;2147785;82;28400;-61
2021/12/28 05:40:16;;;;;;;158.87;67.37;;;;;;;-6.87;75.25;99471.02;2166893;82;29034;-62
2021/12/28 05:43:17;;;;;;;163.28;65.75;;;;;;;-6.85;75.33;99461.45;2147653;82;31007;-61
2021/12/28 05:46:19;;;;;;;162.18;66.20;;;;;;;-6.83;75.33;99452.37;2166658;82;33571;-60
2021/12/28 05:49:23;;;;;;;163.72;64.92;;;;;;;-6.82;75.42;99446.30;2154385;81;29352;-60
2021/12/28 05:52:26;;;;;;;168.13;69.05;;;;;;;-6.80;75.41;99447.19;2158231;82;27660;-60
2021/12/28 05:55:28;;;;;;;160.30;67.70;;;;;;;-6.78;75.45;99444.17;2158457;82;29515;-61
2021/12/28 05:58:32;;;;;;;164.75;68.15;;;;;;;-6.77;75.48;99437.66;2158019;82;31039;-66
2021/12/28 06:01:34;;;;;;;165.85;68.30;;;;;;;-6.74;75.46;99438.98;2158440;82;33756;-63
2021/12/28 06:04:36;;;;;;;155.80;67.65;;;;;;;-6.73;75.46;99431.61;2158516;82;29094;-64
2021/12/28 06:07:38;;;;;;;156.63;62.33;;;;;;;-6.71;75.49;99435.52;2158123;82;28176;-70
2021/12/28 06:10:40;;;;;;;166.47;66.95;;;;;;;-6.70;75.47;99429.89;2158446;82;29703;-61
2021/12/28 06:13:42;;;;;;;154.18;63.02;;;;;;;-6.69;75.41;99431.61;2158457;82;31573;-71
2021/12/28 06:16:45;;;;;;;160.82;66.53;;;;;;;-6.66;75.51;99427.72;2158813;82;32978;-69
2021/12/28 06:19:48;;;;;;;164.28;67.53;;;;;;;-6.66;75.64;99426.42;2158393;82;28902;-72
2021/12/28 06:22:50;;;;;;;167.32;71.10;;;;;;;-6.66;75.57;99422.09;2158191;82;27685;-67
2021/12/28 06:25:52;;;;;;;172.17;70.22;;;;;;;-6.63;75.70;99424.73;2158143;82;28700;-69
2021/12/28 06:28:54;;;;;;;156.15;68.02;;;;;;;-6.62;75.67;99422.56;2158006;82;32227;-62
2021/12/28 06:31:56;;;;;;;155.40;67.85;;;;;;;-6.60;75.71;99422.11;2158032;82;33983;-60
2021/12/28 06:34:58;;;;;;;156.85;67.25;;;;;;;-6.59;75.79;99419.95;2158845;82;30239;-60
2021/12/28 06:38:02;;;;;;;160.52;66.05;;;;;;;-6.56;75.81;99419.97;2158349;82;27655;-69
2021/12/28 06:41:06;;;;;;;167.93;66.02;;;;;;;-6.51;75.84;99425.20;2158444;82;28636;-59
2021/12/28 06:44:09;;;;;;;162.18;67.82;;;;;;;-6.48;76.12;99427.83;2158387;82;31092;-60
2021/12/28 06:47:11;;;;;;;168.17;70.67;;;;;;;-6.44;76.14;99423.50;2157998;82;33904;-61
2021/12/28 06:50:14;;;;;;;162.03;67.90;;;;;;;-6.39;76.12;99420.94;2173997;81;31503;-61
2021/12/28 06:53:17;;;;;;;152.05;66.17;;;;;;;-6.33;76.21;99417.92;2178221;81;27672;-61
2021/12/28 06:56:19;;;;;;;167.07;68.22;;;;;;;-6.27;76.28;99420.54;2177489;81;29360;-73
2021/12/28 06:59:21;;;;;;;152.97;64.85;;;;;;;-6.20;76.22;99430.56;2176274;81;32225;-70
2021/12/28 07:02:23;;;;;;;154.75;66.87;;;;;;;-6.14;76.22;99425.83;2173475;81;34408;-70
2021/12/28 07:05:26;;;;;;;157.52;63.83;;;;;;;-6.09;76.17;99425.39;2152049;82;29340;-68
2021/12/28 07:08:28;;;;;;;152.27;61.50;;;;;;;-6.02;76.15;99427.58;2148780;82;27714;-60
2021/12/28 07:11:30;;;;;;;154.10;64.58;;;;;;;-5.96;76.13;99421.06;2147605;82;29920;-70
2021/12/28 07:14:32;;;;;;;151.45;64.45;;;;;;;-5.91;76.12;99424.56;2148598;82;32022;-72
2021/12/28 07:17:34;;;;;;;155.30;64.67;;;;;;;-5.86;76.11;99425.88;2148554;82;34256;-70
2021/12/28 07:20:36;;;;;;;149.30;63.95;;;;;;;-5.80;76.08;99417.63;2148592;82;29432;-71
2021/12/28 07:23:38;;;;;;;148.68;63.02;;;;;;;-5.72;76.04;99414.19;2148779;82;28160;-68
2021/12/28 07:26:41;;;;;;;151.82;65.05;;;;;;;-5.67;76.11;99404.19;2148757;82;29144;-68
2021/12/28 07:29:43;;;;;;;156.30;67.27;;;;;;;-5.62;76.02;99397.67;2148805;82;31799;-62
2021/12/28 07:32:45;;;;;;;153.65;66.65;;;;;;;-5.55;76.08;99399.43;2149469;82;33054;-61
2021/12/28 07:35:48;;;;;;;157.10;65.78;;;;;;;-5.49;76.04;99397.26;2148703;82;30548;-59
2021/12/28 07:38:50;;;;;;;148.90;63.85;;;;;;;-5.42;76.00;99396.83;2150815;82;28307;-66
2021/12/28 07:41:53;;;;;;;150.03;65.52;;;;;;;-5.36;76.03;99388.56;2148989;82;29229;-71
2021/12/28 07:44:55;;;;;;;137.05;59.83;;;;;;;-5.27;76.00;99386.80;2148850;82;32256;-69
2021/12/28 07:47:57;;;;;;;157.10;65.52;;;;;;;-5.15;76.06;99389.43;2148779;82;33961;-68
2021/12/28 07:50:58;;;;;;;150.82;63.83;;;;;;;-5.05;75.95;99385.93;2121034;82;30533;-67
2021/12/28 07:54:00;;;;;;;147.07;64.27;;;;;;;-4.95;75.89;99390.71;2119618;83;27708;-69
2021/12/28 07:57:06;;;;;;;148.82;64.10;;;;;;;-4.84;75.85;99391.12;2119359;84;29573;-63
2021/12/28 08:00:13;;;;;;;155.63;65.03;;;;;;;-4.76;75.72;99394.15;2118727;82;32260;-70
2021/12/28 08:03:15;;;;;;;156.40;65.72;;;;;;;-4.66;75.62;99392.84;2118333;83;32939;-64
2021/12/28 08:06:17;;;;;;;150.05;68.42;;;;;;;-4.53;75.65;99394.54;2119376;84;30456;-70
2021/12/28 08:09:19;;;;;;;142.22;63.05;;;;;;;-4.43;75.45;99392.77;2119503;84;27671;-67
2021/12/28 08:12:22;;;;;;;157.55;68.62;;;;;;;-4.32;75.36;99386.20;2119388;84;29896;-71
2021/12/28 08:15:26;;;;;;;146.80;65.72;;;;;;;-4.22;75.36;99389.65;2119400;84;32391;-60
2021/12/28 08:18:29;;;;;;;140.77;65.25;;;;;;;-4.10;75.24;99396.55;2119936;84;32961;-59
2021/12/28 08:21:31;;;;;;;156.78;68.67;;;;;;;-4.00;75.05;99383.41;2119385;84;30515;-60
2021/12/28 08:24:43;;;;;;;153.02;66.72;;;;;;;-3.87;75.07;99388.16;2119887;83;27614;-64
2021/12/28 08:27:47;;;;;;;158.07;66.85;;;;;;;-3.73;75.05;99383.27;2118520;83;27703;-59
2021/12/28 08:30:49;;;;;;;155.27;68.17;;;;;;;-3.60;74.84;99377.06;2119487;84;31691;-60
2021/12/28 08:33:51;;;;;;;143.80;64.45;;;;;;;-3.52;74.66;99373.09;2119334;84;34254;-68
2021/12/28 08:36:54;;;;;;;148.57;68.35;;;;;;;-3.44;74.50;99371.30;2119487;84;30350;-63
2021/12/28 08:39:56;;;;;;;147.57;64.47;;;;;;;-3.44;74.27;99356.89;2119453;84;27728;-63
2021/12/28 08:42:58;;;;;;;156.95;70.28;;;;;;;-3.42;74.23;99349.90;2100337;84;29181;-67
2021/12/28 08:46:00;;;;;;;157.62;67.15;;;;;;;-3.39;74.28;99345.06;2118449;81;32282;-59
2021/12/28 08:49:02;;;;;;;142.18;65.25;;;;;;;-3.38;74.29;99346.35;2125002;82;33343;-60
2021/12/28 08:52:05;;;;;;;150.87;66.35;;;;;;;-3.34;74.19;99343.29;2147898;82;29383;-59
2021/12/28 08:55:09;;;;;;;157.78;69.75;;;;;;;-3.27;74.25;99339.72;2149171;82;27739;-68
2021/12/28 08:58:11;;;;;;;150.75;68.87;;;;;;;-3.18;74.39;99334.84;2151603;82;28801;-60
2021/12/28 09:01:13;;;;;;;155.67;69.17;;;;;;;-3.08;74.27;99335.62;2170684;81;31944;-66
2021/12/28 09:04:17;;;;;;;158.85;69.12;;;;;;;-3.00;74.12;99344.71;2169624;82;34217;-61
2021/12/28 09:07:19;;;;;;;147.75;67.03;;;;;;;-2.97;73.92;99344.23;2170843;82;30134;-62
2021/12/28 09:10:25;;;;;;;135.35;61.42;;;;;;;-2.97;73.73;99342.06;2170715;82;27654;-60
2021/12/28 09:13:27;;;;;;;156.85;68.45;;;;;;;-2.95;73.65;99339.84;2170249;82;28637;-67
2021/12/28 09:16:29;;;;;;;153.57;64.92;;;;;;;-2.96;73.69;99330.25;2170430;82;31631;-63
2021/12/28 09:19:31;;;;;;;165.20;74.55;;;;;;;-2.95;73.58;99336.38;2169661;82;34356;-71
2021/12/28 09:22:34;;;;;;;160.07;70.70;;;;;;;-2.94;73.69;99326.32;2170554;81;30676;-68
2021/12/28 09:25:36;;;;;;;151.20;71.00;;;;;;;-2.90;73.78;99338.06;2170670;82;27672;-62
2021/12/28 09:28:39;;;;;;;155.90;68.83;;;;;;;-2.85;73.69;99333.22;2170258;82;29302;-63
2021/12/28 09:31:41;;;;;;;157.05;72.12;;;;;;;-2.80;73.57;99334.02;2170456;82;32242;-67
2021/12/28 09:34:44;;;;;;;151.47;69.65;;;;;;;-2.77;73.61;99324.39;2169326;82;33740;-70
2021/12/28 09:37:46;;;;;;;160.28;70.92;;;;;;;-2.72;73.38;99328.69;2170480;82;30290;-63
2021/12/28 09:40:50;;;;;;;162.95;68.42;;;;;;;-2.66;73.47;99333.88;2171444;82;27692;-64
2021/12/28 09:43:52;;;;;;;154.12;68.97;;;;;;;-2.63;73.29;99327.29;2170807;82;28882;-68
2021/12/28 09:46:55;;;;;;;176.12;75.97;;;;;;;-2.57;73.27;99322.41;2170535;82;32036;-63
2021/12/28 09:49:57;;;;;;;162.05;72.65;;;;;;;-2.52;73.41;99312.28;2170598;82;33065;-74
2021/12/28 09:53:00;;;;;;;165.30;75.50;;;;;;;-2.42;73.25;99303.86;2170788;81;29739;-71
2021/12/28 09:56:04;;;;;;;151.55;69.42;;;;;;;-2.35;73.24;99302.03;2171151;82;27682;-61
2021/12/28 09:59:07;;;;;;;152.30;71.47;;;;;;;-2.25;73.17;99301.03;2171026;81;28707;-69
2021/12/28 10:02:10;;;;;;;159.60;72.47;;;;;;;-2.17;72.75;99296.99;2174307;81;31440;-72
2021/12/28 10:05:18;;;;;;;160.78;73.72;;;;;;;-2.11;72.87;99295.57;2170964;81;32631;-63
2021/12/28 10:08:25;;;;;;;164.25;73.90;;;;;;;-2.01;72.80;99285.81;2170896;82;29380;-62
2021/12/28 10:11:39;;;;;;;166.75;72.25;;;;;;;-1.90;72.81;99291.76;2171096;82;27622;-62
2021/12/28 10:14:41;;;;;;;158.45;71.57;;;;;;;-1.77;72.81;99279.32;2169857;81;28873;-65
2021/12/28 10:17:46;;;;;;;167.65;75.03;;;;;;;-1.66;72.60;99276.98;2170648;82;32263;-71
2021/12/28 10:20:58;;;;;;;155.15;73.00;;;;;;;-1.55;72.33;99260.59;2170652;82;34167;-71
2021/12/28 10:24:00;;;;;;;154.50;68.70;;;;;;;-1.46;72.46;99262.20;2170729;82;29325;-61
2021/12/28 10:27:18;;;;;;;144.90;69.42;;;;;;;-1.30;72.32;99262.77;2169831;81;27658;-63
2021/12/28 10:30:29;;;;;;;146.20;68.70;;;;;;;-1.18;72.21;99263.89;2170592;82;28683;-65
2021/12/28 10:33:36;;;;;;;151.68;67.03;;;;;;;-1.01;72.26;99262.70;2170991;82;32069;-66
2021/12/28 10:36:38;;;;;;;148.87;67.95;;;;;;;-0.86;71.69;99254.95;2171048;81;33007;-69
2021/12/28 10:39:47;;;;;;;146.32;67.55;;;;;;;-0.77;71.97;99253.00;2170888;82;29789;-67
2021/12/28 10:43:06;;;;;;;149.30;68.65;;;;;;;-0.62;71.69;99245.69;2162809;81;27748;-71
2021/12/28 10:46:12;;;;;;;148.43;67.37;;;;;;;-0.53;71.25;99226.22;2096391;84;29923;-68
2021/12/28 10:49:15;;;;;;;152.00;70.00;;;;;;;-0.44;71.35;99227.34;2093748;84;31143;-64
2021/12/28 10:52:37;;;;;;;152.57;69.45;;;;;;;-0.35;71.27;99218.39;2064286;85;33765;-69
2021/12/28 10:55:35;;;;;;;145.38;64.90;;;;;;;-0.31;71.06;99209.06;2086478;85;30168;-71
2021/12/28 10:58:44;;;;;;;148.82;67.80;;;;;;;-0.19;70.59;99203.97;2087667;85;27662;-61
2021/12/28 11:01:50;;;;;;;142.05;66.77;;;;;;;-0.11;71.12;99201.16;2087813;85;28660;-62
2021/12/28 11:04:53;;;;;;;149.10;68.10;;;;;;;-0.02;70.82;99192.17;2051350;86;31204;-64
2021/12/28 11:08:18;;;;;;;151.35;68.85;;;;;;;0.11;70.65;99187.45;2050240;86;32982;-63
2021/12/28 11:11:24;;;;;;;149.40;68.47;;;;;;;0.20;70.59;99171.87;2060354;86;29685;-64
2021/12/28 11:14:29;;;;;;;149.90;70.17;;;;;;;0.32;70.02;99162.36;2067603;84;28453;-67
2021/12/28 11:17:31;;;;;;;144.35;68.10;;;;;;;0.40;70.55;99156.42;2067965;86;28856;-60
2021/12/28 11:20:34;;;;;;;150.00;71.12;;;;;;;0.52;70.68;99156.55;2066753;86;32259;-62
2021/12/28 11:23:37;;;;;;;144.07;67.82;;;;;;;0.65;70.60;99158.41;2059184;85;34214;-63
2021/12/28 11:26:51;;;;;;;136.57;63.95;;;;;;;0.75;70.15;99157.67;2058883;86;30150;-69
2021/12/28 11:29:54;;;;;;;144.02;67.37;;;;;;;0.79;69.77;99157.15;2058368;86;27688;-69
2021/12/28 11:33:09;;;;;;;136.15;64.87;;;;;;;0.85;69.91;99143.77;2059227;86;29903;-73
2021/12/28 11:36:12;;;;;;;135.68;65.55;;;;;;;0.94;69.62;99145.28;2059552;86;32019;-67
2021/12/28 11:39:21;;;;;;;133.12;64.40;;;;;;;0.95;69.57;99137.78;2052572;86;33038;-65
2021/12/28 11:42:24;;;;;;;131.37;64.27;;;;;;;1.00;69.59;99140.69;2032913;87;29325;-69
2021/12/28 11:45:26;;;;;;;134.30;63.42;;;;;;;1.09;69.70;99132.12;2030242;87;27698;-72
2021/12/28 11:48:30;;;;;;;137.30;64.85;;;;;;;1.16;69.83;99125.29;2030049;87;29530;-71
2021/12/28 11:51:32;;;;;;;135.35;67.17;;;;;;;1.25;69.20;99123.27;2029921;87;31921;-68
2021/12/28 11:54:37;;;;;;;138.28;65.52;;;;;;;1.33;69.33;99119.48;2030194;87;33357;-67
2021/12/28 11:57:51;;;;;;;133.87;64.32;;;;;;;1.41;69.29;99113.12;2030254;87;29488;-72
2021/12/28 12:00:52;;;;;;;127.58;60.88;;;;;;;1.46;69.08;99104.14;2001024;88;27553;-72
2021/12/28 12:03:54;;;;;;;134.78;64.12;;;;;;;1.54;68.84;99101.73;2000175;88;29158;-72
2021/12/28 12:07:13;;;;;;;124.62;60.45;;;;;;;1.53;68.64;99101.31;2000891;88;31910;-70
2021/12/28 12:10:27;;;;;;;128.10;61.25;;;;;;;1.55;68.86;99099.02;2001290;88;33007;-61
2021/12/28 12:13:31;;;;;;;133.95;64.87;;;;;;;1.57;68.59;99085.33;1944109;90;27771;-69
2021/12/28 12:16:33;;;;;;;132.93;62.80;;;;;;;1.53;68.37;99092.92;1944296;91;27878;-70
2021/12/28 12:19:50;;;;;;;116.25;59.20;;;;;;;1.47;68.43;99081.27;1943724;91;29920;-69
2021/12/28 12:23:09;;;;;;;124.18;61.33;;;;;;;1.44;67.98;99078.25;1943303;91;31865;-63
2021/12/28 12:26:17;;;;;;;127.65;62.25;;;;;;;1.42;68.35;99083.18;1951126;88;32976;-64
2021/12/28 12:29:22;;;;;;;122.72;59.73;;;;;;;1.40;68.14;99095.12;2007907;88;29336;-71
2021/12/28 12:33:01;;;;;;;127.62;61.42;;;;;;;1.36;68.41;99102.24;2007517;88;27933;-71
2021/12/28 12:36:08;;;;;;;128.10;63.00;;;;;;;1.33;68.08;99097.53;2006904;88;29319;-71
2021/12/28 12:39:11;;;;;;;126.47;60.45;;;;;;;1.29;68.22;99103.80;2008064;88;30486;-65
2021/12/28 12:42:15;;;;;;;139.35;64.40;;;;;;;1.28;68.20;99104.27;2008179;88;32980;-70
2021/12/28 12:45:18;;;;;;;119.15;59.48;;;;;;;1.25;68.05;99100.84;2008131;88;29433;-63
2021/12/28 12:48:42;;;;;;;132.63;63.52;;;;;;;1.24;68.21;99096.51;2008282;88;27747;-61
2021/12/28 12:51:55;;;;;;;125.38;61.28;;;;;;;1.22;68.24;99093.90;2007865;88;29785;-64
2021/12/28 12:54:57;;;;;;;122.10;61.98;;;;;;;1.23;68.41;99091.67;2008076;88;31077;-63
2021/12/28 12:58:15;;;;;;;127.65;61.13;;;;;;;1.24;68.27;99092.08;2007365;88;33422;-61
2021/12/28 13:01:49;;;;;;;137.20;64.12;;;;;;;1.24;68.22;99087.28;2005327;88;29455;-63
2021/12/28 13:04:59;;;;;;;130.27;62.65;;;;;;;1.20;68.27;99082.09;2008066;88;28159;-63
2021/12/28 13:08:07;;;;;;;126.97;59.65;;;;;;;1.20;68.28;99062.74;2007176;88;28655;-61
2021/12/28 13:11:09;;;;;;;140.30;66.75;;;;;;;1.20;67.91;99065.38;1998541;87;31228;-65
2021/12/28 13:14:12;;;;;;;133.63;62.67;;;;;;;1.19;68.17;99063.21;1996590;89;34139;-64
2021/12/28 13:17:22;;;;;;;132.90;66.20;;;;;;;1.22;68.32;99066.20;2020748;86;29390;-65
2021/12/28 13:20:30;;;;;;;135.48;62.65;;;;;;;1.23;68.33;99052.10;2062268;86;27823;-68
2021/12/28 13:23:32;;;;;;;124.53;60.20;;;;;;;1.27;68.42;99051.09;2061791;86;29536;-65
2021/12/28 13:26:51;;;;;;;125.90;60.08;;;;;;;1.28;68.27;99052.83;2025971;87;31883;-67
2021/12/28 13:29:55;;;;;;;129.85;64.53;;;;;;;1.28;68.16;99044.91;2035745;87;34185;-63
2021/12/28 13:32:59;;;;;;;136.77;65.08;;;;;;;1.31;68.45;99042.63;2035704;87;30559;-69
2021/12/28 13:36:01;;;;;;;143.32;64.32;;;;;;;1.31;68.42;99028.99;2028687;87;27803;-70
2021/12/28 13:39:09;;;;;;;134.90;64.85;;;;;;;1.38;68.71;99034.92;2032345;87;28663;-69
2021/12/28 13:42:13;;;;;;;134.65;64.05;;;;;;;1.43;68.70;99028.17;2029752;87;31042;-66
2021/12/28 13:45:43;;;;;;;120.08;59.80;;;;;;;1.48;68.73;99023.14;2011471;87;33778;-64
2021/12/28 13:48:46;;;;;;;129.50;61.55;;;;;;;1.51;68.63;99010.30;2029346;87;30453;-65
2021/12/28 13:51:48;;;;;;;127.82;61.00;;;;;;;1.52;68.54;99001.47;2017970;87;27993;-63
2021/12/28 13:54:51;;;;;;;126.60;61.35;;;;;;;1.52;68.71;99000.14;2009775;88;28627;-64
2021/12/28 13:57:53;;;;;;;126.47;62.78;;;;;;;1.55;68.64;99003.16;2010300;87;31913;-65
2021/12/28 14:00:59;;;;;;;129.68;58.42;;;;;;;1.57;68.72;99007.93;2032336;87;32950;-66
2021/12/28 14:04:05;;;;;;;118.42;58.95;;;;;;;1.61;68.73;99002.93;2030726;87;29361;-64